Time;durP1;ratioP1;P1;durP2;ratioP2;P2;SDS_P1;SDS_P2;PMS_P1;PMS_P2;Temp;Humidity;BMP_temperature;BMP_pressure;BME280_temperature;BME280_humidity;BME280_pressure;Samples;Min_cycle;Max_cycle;Signal;HPM_P1;HPM_P2
2021/08/05 00:00:04;;;;;;;5.60;5.00;;;17.30;99.90;;;;;;5040571;28;20450;-71
2021/08/05 00:02:31;;;;;;;7.00;6.30;;;17.30;99.90;;;;;;5032488;28;20458;-71
2021/08/05 00:04:58;;;;;;;7.63;5.78;;;17.30;99.90;;;;;;5032067;28;20516;-71
2021/08/05 00:07:27;;;;;;;8.30;7.18;;;17.20;99.90;;;;;;5026189;28;20232;-71
2021/08/05 00:09:54;;;;;;;6.40;5.70;;;17.10;99.90;;;;;;5043526;28;20648;-70
2021/08/05 00:12:22;;;;;;;6.63;5.82;;;17.00;99.90;;;;;;5034291;28;20457;-71
2021/08/05 00:14:49;;;;;;;6.65;5.95;;;16.90;99.90;;;;;;5042596;28;20260;-71
2021/08/05 00:17:16;;;;;;;8.60;7.60;;;16.90;99.90;;;;;;5038212;28;20210;-71
2021/08/05 00:19:43;;;;;;;9.43;7.53;;;16.80;99.90;;;;;;5026922;28;20668;-70
2021/08/05 00:22:10;;;;;;;10.98;9.93;;;16.70;99.90;;;;;;5032136;28;20201;-70
2021/08/05 00:24:39;;;;;;;9.52;8.35;;;16.60;99.90;;;;;;5031774;28;20213;-70
2021/08/05 00:27:07;;;;;;;9.52;8.73;;;16.50;99.90;;;;;;5031751;28;20205;-71
2021/08/05 00:29:35;;;;;;;9.07;8.07;;;16.50;99.90;;;;;;5031629;28;20220;-71
2021/08/05 00:32:02;;;;;;;10.60;9.60;;;16.50;99.90;;;;;;5032296;28;20294;-70
2021/08/05 00:34:29;;;;;;;12.02;10.15;;;16.40;99.90;;;;;;5031351;28;20209;-71
2021/08/05 00:36:56;;;;;;;9.63;8.73;;;16.40;99.90;;;;;;5037368;28;20214;-71
2021/08/05 00:39:23;;;;;;;13.90;11.10;;;16.30;99.90;;;;;;5034461;28;20239;-72
2021/08/05 00:41:52;;;;;;;12.32;11.13;;;16.30;99.90;;;;;;5040356;28;20204;-70
2021/08/05 00:44:19;;;;;;;10.75;9.75;;;16.30;99.90;;;;;;5034856;28;20204;-71
2021/08/05 00:46:46;;;;;;;12.00;10.60;;;16.20;99.90;;;;;;5037103;28;20220;-70
2021/08/05 00:49:13;;;;;;;12.20;10.88;;;16.20;99.90;;;;;;5038127;28;20221;-70
2021/08/05 00:51:41;;;;;;;13.45;12.13;;;16.10;99.90;;;;;;5030209;28;20213;-71
2021/08/05 00:54:09;;;;;;;12.23;11.02;;;16.20;99.90;;;;;;5024392;28;20308;-71
2021/08/05 00:56:37;;;;;;;12.73;11.60;;;16.10;99.90;;;;;;5031707;28;20210;-71
2021/08/05 00:59:05;;;;;;;12.65;11.45;;;16.10;99.90;;;;;;5032120;28;20240;-71
2021/08/05 01:01:40;;;;;;;15.70;14.30;;;16.10;99.90;;;;;;5032976;28;20208;-71
2021/08/05 01:04:08;;;;;;;11.55;10.40;;;16.10;99.90;;;;;;5031814;28;20207;-70
2021/08/05 01:06:43;;;;;;;15.00;13.60;;;16.10;99.90;;;;;;5031330;28;20299;-71
2021/08/05 01:09:20;;;;;;;13.88;12.50;;;16.10;99.90;;;;;;5045807;28;20220;-71
2021/08/05 01:11:55;;;;;;;13.45;12.18;;;16.10;99.90;;;;;;5049411;28;20645;-71
2021/08/05 01:14:28;;;;;;;13.35;12.15;;;16.10;99.90;;;;;;5044115;28;20203;-71
2021/08/05 01:16:56;;;;;;;14.77;13.48;;;16.10;99.90;;;;;;5048499;28;20204;-70
2021/08/05 01:19:32;;;;;;;16.63;15.05;;;16.00;99.90;;;;;;5036363;28;20228;-70
2021/08/05 01:22:09;;;;;;;15.00;13.70;;;16.00;99.90;;;;;;5033907;28;20273;-71
2021/08/05 01:24:39;;;;;;;13.77;12.50;;;15.90;99.90;;;;;;5033045;28;20546;-70
2021/08/05 01:27:07;;;;;;;13.73;12.40;;;16.00;99.90;;;;;;5035964;28;20211;-71
2021/08/05 01:29:39;;;;;;;14.52;13.02;;;16.00;99.90;;;;;;5041531;28;20220;-71
2021/08/05 01:32:07;;;;;;;15.48;13.93;;;16.00;99.90;;;;;;5031243;28;20200;-70
2021/08/05 01:34:37;;;;;;;19.48;12.85;;;16.00;99.90;;;;;;5036118;28;20200;-70
2021/08/05 01:37:07;;;;;;;16.85;15.20;;;16.00;99.90;;;;;;5034590;28;20204;-70
2021/08/05 01:39:34;;;;;;;16.95;15.27;;;16.00;99.90;;;;;;5034447;28;20198;-71
2021/08/05 01:42:02;;;;;;;15.25;13.88;;;16.00;99.90;;;;;;5043390;28;20218;-71
2021/08/05 01:44:37;;;;;;;16.85;14.43;;;16.00;99.90;;;;;;5045746;28;20207;-70
2021/08/05 01:47:06;;;;;;;15.20;13.90;;;16.00;99.90;;;;;;5041220;28;20229;-71
2021/08/05 01:49:35;;;;;;;18.42;16.67;;;16.00;99.90;;;;;;5038704;28;20205;-70
2021/08/05 01:52:03;;;;;;;17.17;15.48;;;16.00;99.90;;;;;;5035058;28;20200;-70
2021/08/05 01:54:30;;;;;;;15.93;14.52;;;16.00;99.90;;;;;;5035207;28;20231;-71
2021/08/05 01:56:57;;;;;;;18.10;15.63;;;16.00;99.90;;;;;;5034047;28;20208;-71
2021/08/05 01:59:24;;;;;;;17.60;15.98;;;16.00;99.90;;;;;;5043992;28;20203;-70
2021/08/05 02:01:53;;;;;;;16.10;14.65;;;15.90;99.90;;;;;;5035945;28;20561;-71
2021/08/05 02:04:33;;;;;;;18.92;17.10;;;15.90;99.90;;;;;;5031499;28;20197;-70
2021/08/05 02:07:07;;;;;;;19.23;16.90;;;15.90;99.90;;;;;;5033308;28;20229;-70
2021/08/05 02:09:41;;;;;;;16.98;15.35;;;15.80;99.90;;;;;;5032585;28;20808;-71
2021/08/05 02:12:08;;;;;;;16.70;15.20;;;15.80;99.90;;;;;;5032471;28;20205;-70
2021/08/05 02:14:36;;;;;;;17.90;16.20;;;15.80;99.90;;;;;;5039502;28;20219;-71
2021/08/05 02:17:08;;;;;;;18.80;17.05;;;15.80;99.90;;;;;;5042610;28;20196;-71
2021/08/05 02:19:36;;;;;;;17.30;15.48;;;15.70;99.90;;;;;;5040401;28;20215;-71
2021/08/05 02:22:04;;;;;;;17.95;16.15;;;15.70;99.90;;;;;;5033467;28;20192;-71
2021/08/05 02:24:33;;;;;;;19.58;17.77;;;15.70;99.90;;;;;;5034484;28;20578;-70
2021/08/05 02:27:01;;;;;;;16.40;14.75;;;15.70;99.90;;;;;;5041565;28;20231;-71
2021/08/05 02:29:29;;;;;;;19.48;17.55;;;15.60;99.90;;;;;;5035154;28;20211;-71
2021/08/05 02:31:58;;;;;;;18.40;16.50;;;15.60;99.90;;;;;;5046147;28;20540;-71
2021/08/05 02:34:27;;;;;;;21.25;18.58;;;15.70;99.90;;;;;;5036218;28;20211;-70
2021/08/05 02:36:54;;;;;;;18.98;17.20;;;15.60;99.90;;;;;;5034014;28;20208;-71
2021/08/05 02:39:21;;;;;;;19.33;17.42;;;15.60;99.90;;;;;;5032657;28;20221;-71
2021/08/05 02:41:51;;;;;;;17.02;15.35;;;15.60;99.90;;;;;;5041016;28;20209;-70
2021/08/05 02:44:19;;;;;;;22.08;19.88;;;15.60;99.90;;;;;;5033376;28;20200;-70
2021/08/05 02:46:48;;;;;;;21.00;18.67;;;15.50;99.90;;;;;;5047791;28;20677;-71
2021/08/05 02:49:16;;;;;;;22.27;20.08;;;15.50;99.90;;;;;;5033758;28;20318;-72
2021/08/05 02:51:46;;;;;;;19.55;17.70;;;15.50;99.90;;;;;;5028524;28;20565;-71
2021/08/05 02:54:14;;;;;;;20.17;18.17;;;15.50;99.90;;;;;;5033702;28;20637;-70
2021/08/05 02:56:42;;;;;;;18.40;16.70;;;15.50;99.90;;;;;;5033454;28;20210;-70
2021/08/05 02:59:09;;;;;;;19.52;17.23;;;15.50;99.90;;;;;;5040708;28;20247;-70
2021/08/05 03:01:36;;;;;;;19.73;17.77;;;15.50;99.90;;;;;;5038275;28;20201;-70
2021/08/05 03:04:04;;;;;;;19.63;17.48;;;15.50;99.90;;;;;;5038863;28;20205;-70
2021/08/05 03:06:33;;;;;;;17.70;15.85;;;15.40;99.90;;;;;;5033107;28;20225;-71
2021/08/05 03:09:01;;;;;;;21.48;19.48;;;15.40;99.90;;;;;;5032671;28;20239;-71
2021/08/05 03:11:28;;;;;;;21.85;19.75;;;15.40;99.90;;;;;;5033133;28;20211;-71
2021/08/05 03:13:55;;;;;;;19.88;18.08;;;15.40;99.90;;;;;;5033677;28;20216;-71
2021/08/05 03:16:22;;;;;;;17.73;16.15;;;15.40;99.90;;;;;;5041460;28;20200;-70
2021/08/05 03:18:50;;;;;;;17.63;15.85;;;15.40;99.90;;;;;;5042993;28;20566;-70
2021/08/05 03:21:17;;;;;;;19.90;17.90;;;15.40;99.90;;;;;;5033697;28;20198;-70
2021/08/05 03:23:45;;;;;;;19.55;17.75;;;15.40;99.90;;;;;;5032763;28;20204;-71
2021/08/05 03:26:13;;;;;;;19.00;17.30;;;15.40;99.90;;;;;;5033300;28;20220;-71
2021/08/05 03:28:40;;;;;;;22.75;20.25;;;15.40;99.90;;;;;;5032066;28;20543;-70
2021/08/05 03:31:08;;;;;;;21.33;18.92;;;15.30;99.90;;;;;;5032826;28;20208;-72
2021/08/05 03:33:35;;;;;;;20.40;18.38;;;15.30;99.90;;;;;;5037355;28;20212;-71
2021/08/05 03:36:03;;;;;;;22.42;20.08;;;15.30;99.90;;;;;;5039050;28;20197;-71
2021/08/05 03:38:30;;;;;;;17.90;16.00;;;15.20;99.90;;;;;;5034725;28;20227;-71
2021/08/05 03:40:58;;;;;;;20.10;18.20;;;15.30;99.90;;;;;;5032476;28;20200;-71
2021/08/05 03:43:26;;;;;;;21.88;19.75;;;15.30;99.90;;;;;;5033094;28;20212;-71
2021/08/05 03:45:53;;;;;;;21.52;19.67;;;15.30;99.90;;;;;;5032062;28;20224;-72
2021/08/05 03:48:21;;;;;;;20.05;16.65;;;15.20;99.90;;;;;;5039941;28;20227;-71
2021/08/05 03:50:48;;;;;;;18.95;17.25;;;15.20;99.90;;;;;;5039798;28;20203;-71
2021/08/05 03:53:15;;;;;;;20.20;18.30;;;15.20;99.90;;;;;;5033570;28;20204;-72
2021/08/05 03:55:42;;;;;;;21.88;19.77;;;15.20;99.90;;;;;;5032547;28;20204;-70
2021/08/05 03:58:10;;;;;;;22.23;20.05;;;15.30;99.90;;;;;;5031888;28;20228;-71
2021/08/05 04:00:39;;;;;;;20.00;17.77;;;15.30;99.90;;;;;;5032062;28;20207;-71
2021/08/05 04:03:06;;;;;;;18.70;17.05;;;15.30;99.90;;;;;;5035067;28;20215;-71
2021/08/05 04:05:33;;;;;;;21.27;19.30;;;15.30;99.90;;;;;;5032295;28;20666;-70
2021/08/05 04:08:00;;;;;;;22.33;20.33;;;15.40;99.90;;;;;;5032202;28;20228;-70
2021/08/05 04:10:28;;;;;;;20.38;18.17;;;15.40;99.90;;;;;;5031189;28;20204;-71
2021/08/05 04:12:55;;;;;;;20.30;18.35;;;15.50;99.90;;;;;;5032707;28;20675;-71
2021/08/05 04:15:22;;;;;;;18.33;16.52;;;15.50;99.90;;;;;;5039613;28;20219;-71
2021/08/05 04:17:51;;;;;;;17.98;16.38;;;15.60;99.90;;;;;;5037274;28;20223;-71
2021/08/05 04:20:19;;;;;;;17.58;16.00;;;15.60;99.90;;;;;;5031466;28;20208;-71
2021/08/05 04:22:46;;;;;;;15.85;14.45;;;15.70;99.90;;;;;;5031942;28;20205;-70
2021/08/05 04:25:13;;;;;;;19.55;17.73;;;15.70;99.90;;;;;;5031831;28;20216;-71
2021/08/05 04:27:41;;;;;;;17.38;15.70;;;15.70;99.90;;;;;;5031108;28;20232;-71
2021/08/05 04:30:11;;;;;;;16.55;14.85;;;15.80;99.90;;;;;;5030934;28;20212;-70
2021/08/05 04:32:39;;;;;;;17.70;16.00;;;15.80;99.90;;;;;;5039882;28;20213;-71
2021/08/05 04:35:10;;;;;;;18.23;14.35;;;16.00;99.90;;;;;;5032282;28;20644;-71
2021/08/05 04:37:46;;;;;;;15.35;13.85;;;16.00;99.90;;;;;;5031690;28;20223;-74
2021/08/05 04:40:14;;;;;;;15.55;14.05;;;16.00;99.90;;;;;;5039778;28;20212;-74
2021/08/05 04:42:41;;;;;;;14.93;13.52;;;16.10;99.90;;;;;;5032101;28;20673;-74
2021/08/05 04:45:09;;;;;;;15.07;13.70;;;16.20;99.90;;;;;;5029772;28;20208;-74
2021/08/05 04:47:50;;;;;;;16.85;15.35;;;16.20;99.90;;;;;;5034390;28;20260;-74
2021/08/05 04:50:19;;;;;;;17.67;15.98;;;16.30;99.90;;;;;;5034663;28;20205;-73
2021/08/05 04:52:46;;;;;;;15.65;14.23;;;16.30;99.90;;;;;;5035537;28;20244;-74
2021/08/05 04:55:13;;;;;;;13.13;11.50;;;16.50;99.90;;;;;;5035597;28;20208;-72
2021/08/05 04:57:52;;;;;;;14.85;13.35;;;16.60;99.90;;;;;;5035159;28;20230;-73
2021/08/05 05:00:24;;;;;;;12.32;10.88;;;16.80;99.90;;;;;;5036305;28;20210;-73
2021/08/05 05:02:52;;;;;;;12.37;9.30;;;17.30;99.90;;;;;;5035802;28;20211;-74
2021/08/05 05:05:22;;;;;;;14.17;8.80;;;18.10;99.90;;;;;;5035623;28;20450;-74
2021/08/05 05:07:49;;;;;;;9.13;8.27;;;19.10;99.90;;;;;;5035118;28;20495;-75
2021/08/05 05:10:18;;;;;;;11.17;9.70;;;19.90;99.90;;;;;;5029852;28;20923;-73
2021/08/05 05:12:46;;;;;;;8.40;7.50;;;20.60;99.90;;;;;;5033998;28;20457;-74
2021/08/05 05:15:14;;;;;;;11.43;9.40;;;21.20;99.90;;;;;;5035069;28;20941;-73
2021/08/05 05:17:43;;;;;;;9.70;8.03;;;21.70;99.90;;;;;;5038473;28;20469;-73
2021/08/05 05:20:11;;;;;;;9.67;8.77;;;21.90;99.90;;;;;;5035760;28;20442;-73
2021/08/05 05:22:41;;;;;;;13.73;12.33;;;22.30;99.90;;;;;;5024512;28;20670;-72
2021/08/05 05:25:12;;;;;;;11.30;10.20;;;22.10;99.90;;;;;;5031076;28;20483;-73
2021/08/05 05:27:39;;;;;;;7.90;7.20;;;21.60;99.90;;;;;;5031765;28;20516;-74
2021/08/05 05:30:08;;;;;;;9.77;8.77;;;21.40;99.90;;;;;;5035087;28;20457;-74
2021/08/05 05:32:35;;;;;;;7.10;6.40;;;21.20;99.90;;;;;;5043792;28;20434;-73
2021/08/05 05:35:03;;;;;;;8.23;7.43;;;21.00;99.90;;;;;;5043316;28;20455;-70
2021/08/05 05:37:30;;;;;;;9.90;8.03;;;20.80;99.90;;;;;;5043502;28;20464;-70
2021/08/05 05:39:59;;;;;;;9.50;7.13;;;20.60;99.90;;;;;;5030678;28;20802;-71
2021/08/05 05:42:26;;;;;;;8.90;8.07;;;20.60;99.90;;;;;;5034870;28;20455;-71
2021/08/05 05:44:54;;;;;;;10.40;7.90;;;20.60;99.90;;;;;;5035300;28;20475;-70
2021/08/05 05:47:21;;;;;;;10.63;8.30;;;20.90;99.90;;;;;;5044539;28;20495;-71
2021/08/05 05:49:48;;;;;;;7.00;5.63;;;20.80;99.90;;;;;;5033996;28;20439;-69
2021/08/05 05:52:16;;;;;;;7.30;6.60;;;21.00;99.90;;;;;;5034774;28;20452;-69
2021/08/05 05:54:44;;;;;;;5.80;5.23;;;21.10;99.90;;;;;;5034791;28;20448;-70
2021/08/05 05:57:13;;;;;;;5.63;5.10;;;21.60;99.90;;;;;;5033904;28;20457;-70
2021/08/05 05:59:41;;;;;;;7.53;4.90;;;22.50;99.90;;;;;;5033026;28;20920;-72
2021/08/05 06:02:08;;;;;;;6.83;5.70;;;23.50;99.90;;;;;;5033978;28;20447;-71
2021/08/05 06:04:35;;;;;;;5.47;4.97;;;24.10;99.90;;;;;;5043827;28;20503;-71
2021/08/05 06:07:03;;;;;;;6.10;5.50;;;23.50;99.90;;;;;;5034542;28;20482;-71
2021/08/05 06:09:30;;;;;;;7.93;6.20;;;23.00;99.90;;;;;;5038182;28;20827;-70
2021/08/05 06:11:57;;;;;;;6.40;5.60;;;22.40;99.90;;;;;;5034597;28;20822;-72
2021/08/05 06:14:26;;;;;;;9.30;5.53;;;21.90;99.90;;;;;;5041943;28;20451;-71
2021/08/05 06:16:53;;;;;;;5.90;5.40;;;21.50;99.90;;;;;;5039623;28;20452;-69
2021/08/05 06:19:20;;;;;;;12.60;5.97;;;21.20;99.90;;;;;;5042382;28;20572;-69
2021/08/05 06:21:48;;;;;;;7.13;6.20;;;21.20;99.90;;;;;;5033708;28;20826;-71
2021/08/05 06:24:15;;;;;;;6.43;5.83;;;21.30;99.90;;;;;;5033140;28;20562;-72
2021/08/05 06:26:43;;;;;;;6.83;5.20;;;21.70;99.90;;;;;;5033971;28;20483;-69
2021/08/05 06:29:11;;;;;;;8.30;5.13;;;22.90;99.90;;;;;;5034511;28;20467;-69
2021/08/05 06:31:40;;;;;;;5.93;5.33;;;24.40;99.90;;;;;;5048335;28;20465;-70
2021/08/05 06:34:07;;;;;;;8.63;5.80;;;25.90;98.30;;;;;;5035826;28;20451;-68
2021/08/05 06:36:35;;;;;;;5.77;5.27;;;26.50;95.70;;;;;;5038637;28;20474;-71
2021/08/05 06:39:03;;;;;;;6.30;5.77;;;27.30;93.80;;;;;;5032736;28;20490;-70
2021/08/05 06:41:32;;;;;;;6.43;5.30;;;27.30;92.40;;;;;;5033806;28;20439;-70
2021/08/05 06:43:59;;;;;;;5.90;5.30;;;27.50;92.40;;;;;;5034026;28;20473;-70
2021/08/05 06:46:27;;;;;;;8.83;6.37;;;27.70;91.70;;;;;;5038130;28;20450;-67
2021/08/05 06:48:58;;;;;;;6.53;5.10;;;27.80;91.40;;;;;;5027676;28;20472;-69
2021/08/05 06:51:25;;;;;;;6.20;5.70;;;27.90;91.30;;;;;;5025339;28;20458;-69
2021/08/05 06:53:53;;;;;;;4.30;3.97;;;28.10;90.80;;;;;;5032192;28;20474;-68
2021/08/05 06:56:20;;;;;;;5.67;5.10;;;28.90;90.10;;;;;;5033053;28;20474;-68
2021/08/05 06:58:47;;;;;;;7.33;6.40;;;29.60;87.80;;;;;;5030430;28;20696;-68
2021/08/05 07:01:14;;;;;;;7.53;6.73;;;28.90;87.60;;;;;;5030826;28;20446;-68
2021/08/05 07:03:41;;;;;;;9.10;6.60;;;28.70;89.20;;;;;;5033163;28;20443;-68
2021/08/05 07:06:10;;;;;;;5.73;5.23;;;28.90;89.30;;;;;;5029260;28;20436;-69
2021/08/05 07:08:40;;;;;;;8.07;5.60;;;28.70;88.40;;;;;;5034819;28;21020;-68
2021/08/05 07:11:07;;;;;;;9.13;7.37;;;28.90;88.40;;;;;;5032858;28;20461;-68
2021/08/05 07:13:34;;;;;;;6.83;4.77;;;29.00;88.40;;;;;;5030228;28;20926;-69
2021/08/05 07:16:02;;;;;;;4.87;4.13;;;29.30;87.80;;;;;;5032270;28;20439;-70
2021/08/05 07:18:29;;;;;;;6.43;4.53;;;30.00;85.80;;;;;;5031928;28;20467;-68
2021/08/05 07:20:58;;;;;;;5.20;4.67;;;29.70;84.40;;;;;;5035175;28;20769;-69
2021/08/05 07:23:27;;;;;;;8.90;4.90;;;29.30;86.30;;;;;;5035723;28;20511;-68
2021/08/05 07:25:54;;;;;;;10.83;5.00;;;28.60;87.40;;;;;;5033732;28;20533;-67
2021/08/05 07:28:23;;;;;;;7.70;5.40;;;27.70;89.70;;;;;;5029482;28;20491;-69
2021/08/05 07:30:52;;;;;;;8.90;7.40;;;27.30;90.50;;;;;;5030172;28;20447;-67
2021/08/05 07:33:19;;;;;;;7.50;4.87;;;26.60;91.60;;;;;;5040635;28;20457;-68
2021/08/05 07:35:46;;;;;;;8.90;6.03;;;26.20;92.90;;;;;;5032379;28;20447;-68
2021/08/05 07:38:14;;;;;;;9.33;5.27;;;26.40;92.90;;;;;;5031751;28;20463;-68
2021/08/05 07:40:42;;;;;;;6.57;4.90;;;26.60;92.70;;;;;;5030148;28;20447;-70
2021/08/05 07:43:11;;;;;;;5.20;4.70;;;26.60;92.60;;;;;;5032234;28;20489;-68
2021/08/05 07:45:38;;;;;;;14.93;5.00;;;26.60;92.60;;;;;;5031438;28;20462;-67
2021/08/05 07:48:05;;;;;;;7.07;6.30;;;26.90;92.60;;;;;;5039305;28;20493;-67
2021/08/05 07:50:32;;;;;;;6.73;5.27;;;26.60;92.80;;;;;;5031233;28;20553;-68
2021/08/05 07:53:00;;;;;;;8.80;5.70;;;26.40;93.40;;;;;;5037788;28;20505;-69
2021/08/05 07:55:27;;;;;;;6.87;5.90;;;26.10;93.60;;;;;;5040846;28;20450;-67
2021/08/05 07:57:56;;;;;;;7.00;4.97;;;25.90;93.70;;;;;;5035682;28;20467;-69
2021/08/05 08:00:23;;;;;;;5.37;4.87;;;25.90;93.80;;;;;;5026524;28;20457;-69
2021/08/05 08:02:50;;;;;;;6.10;5.30;;;26.00;94.00;;;;;;5035631;28;20466;-71
2021/08/05 08:05:17;;;;;;;6.43;5.83;;;26.00;93.80;;;;;;5031393;28;20925;-70
2021/08/05 08:07:45;;;;;;;5.60;4.70;;;26.00;94.20;;;;;;5031271;28;20529;-68
2021/08/05 08:10:13;;;;;;;8.40;5.87;;;26.20;93.80;;;;;;5031677;28;20822;-69
2021/08/05 08:12:41;;;;;;;6.97;4.63;;;26.00;93.90;;;;;;5038286;28;20768;-68
2021/08/05 08:15:10;;;;;;;7.27;6.40;;;26.00;94.70;;;;;;5025728;28;20936;-67
2021/08/05 08:17:38;;;;;;;6.77;6.13;;;25.80;94.30;;;;;;5038797;28;20469;-69
2021/08/05 08:20:06;;;;;;;5.77;4.93;;;25.50;95.10;;;;;;5025358;28;20762;-68
2021/08/05 08:22:33;;;;;;;6.87;6.13;;;25.30;96.00;;;;;;5036894;28;20454;-69
2021/08/05 08:25:02;;;;;;;7.73;5.87;;;25.40;96.10;;;;;;5036296;28;20480;-68
2021/08/05 08:27:29;;;;;;;7.20;6.07;;;25.60;95.70;;;;;;5028742;28;20972;-68
2021/08/05 08:29:58;;;;;;;7.93;5.63;;;25.60;95.90;;;;;;5027902;28;20461;-69
2021/08/05 08:32:27;;;;;;;5.83;5.30;;;25.30;96.10;;;;;;5031080;28;20797;-70
2021/08/05 08:34:55;;;;;;;8.47;6.00;;;25.10;96.90;;;;;;5031536;28;20439;-68
2021/08/05 08:37:22;;;;;;;10.73;6.20;;;24.90;97.30;;;;;;5033276;28;20498;-67
2021/08/05 08:39:49;;;;;;;7.33;6.73;;;24.60;97.90;;;;;;5030800;28;20447;-68
2021/08/05 08:42:17;;;;;;;8.80;7.90;;;24.40;98.10;;;;;;5030127;28;20450;-69
2021/08/05 08:44:44;;;;;;;7.73;6.93;;;23.90;99.40;;;;;;5031167;28;20455;-68
2021/08/05 08:47:13;;;;;;;6.33;5.60;;;23.50;99.90;;;;;;5035760;28;20443;-68
2021/08/05 08:49:44;;;;;;;7.70;5.20;;;23.60;99.90;;;;;;5030041;28;20451;-67
2021/08/05 08:52:12;;;;;;;8.60;6.17;;;24.00;99.90;;;;;;5032344;28;20925;-67
2021/08/05 08:54:44;;;;;;;9.00;7.73;;;24.40;99.90;;;;;;5031060;28;20451;-67
2021/08/05 08:57:12;;;;;;;7.03;6.17;;;24.60;99.80;;;;;;5031464;28;20443;-68
2021/08/05 08:59:41;;;;;;;10.53;5.20;;;25.20;98.70;;;;;;5029990;28;20503;-69
2021/08/05 09:02:09;;;;;;;6.90;6.20;;;25.50;97.30;;;;;;5031018;28;20459;-69
2021/08/05 09:04:36;;;;;;;8.90;6.07;;;25.60;96.70;;;;;;5029145;28;20449;-67
2021/08/05 09:07:05;;;;;;;9.83;7.17;;;25.50;96.70;;;;;;5029746;28;20473;-68
2021/08/05 09:09:32;;;;;;;7.27;5.53;;;25.50;97.40;;;;;;5035129;28;20834;-66
2021/08/05 09:12:00;;;;;;;6.10;5.50;;;25.60;96.90;;;;;;5031433;28;20933;-68
2021/08/05 09:14:47;;;;;;;9.60;6.30;;;25.80;97.00;;;;;;5030296;28;20922;-68
2021/08/05 09:17:23;;;;;;;11.73;6.40;;;26.00;96.30;;;;;;5031750;28;20462;-69
2021/08/05 09:19:53;;;;;;;9.70;6.40;;;26.40;95.40;;;;;;5035631;28;20568;-67
2021/08/05 09:22:39;;;;;;;6.60;5.80;;;26.60;94.40;;;;;;5030501;28;20807;-69
2021/08/05 09:25:30;;;;;;;7.83;5.37;;;27.00;93.80;;;;;;5032639;28;20882;-68
2021/08/05 09:27:59;;;;;;;7.10;6.40;;;27.50;92.80;;;;;;5027435;28;20491;-67
2021/08/05 09:30:35;;;;;;;9.73;7.40;;;27.50;92.70;;;;;;5029774;28;20457;-69
2021/08/05 09:33:05;;;;;;;8.43;7.53;;;27.10;92.50;;;;;;5039110;28;20456;-71
2021/08/05 09:35:32;;;;;;;7.57;6.80;;;27.30;92.70;;;;;;5044828;28;20935;-70
2021/08/05 09:41:06;;;;;;;9.27;7.50;;;27.40;92.30;;;;;;5060921;28;21045;-69
2021/08/05 09:43:33;;;;;;;7.53;6.53;;;27.30;92.10;;;;;;5065012;28;20441;-67
2021/08/05 09:46:01;;;;;;;7.57;6.93;;;27.30;92.60;;;;;;5061028;28;20898;-69
2021/08/05 09:48:40;;;;;;;6.40;5.80;;;27.50;92.10;;;;;;5080080;28;20518;-69
2021/08/05 09:51:14;;;;;;;7.57;5.90;;;27.80;91.50;;;;;;5073861;28;20463;-71
2021/08/05 09:53:59;;;;;;;7.57;6.87;;;28.00;91.20;;;;;;5067433;28;20463;-66
2021/08/05 09:56:29;;;;;;;6.37;5.87;;;28.50;90.80;;;;;;5063161;28;20446;-69
2021/08/05 09:59:11;;;;;;;7.70;5.93;;;28.90;90.00;;;;;;5066472;28;20489;-69
2021/08/05 10:01:56;;;;;;;6.43;5.93;;;29.30;89.60;;;;;;5064508;28;20564;-68
2021/08/05 10:04:25;;;;;;;5.93;5.30;;;29.10;88.80;;;;;;5070144;28;20441;-69
2021/08/05 10:07:00;;;;;;;6.23;5.77;;;28.90;88.70;;;;;;5071549;28;20441;-68
2021/08/05 10:09:28;;;;;;;5.90;5.40;;;29.40;86.50;;;;;;5068205;28;20445;-68
2021/08/05 10:12:16;;;;;;;5.50;5.00;;;30.00;85.40;;;;;;5070412;28;20448;-69
2021/08/05 10:14:44;;;;;;;5.87;5.30;;;30.10;84.30;;;;;;5061836;28;20468;-71
2021/08/05 10:17:12;;;;;;;8.17;5.20;;;30.10;84.70;;;;;;5062285;28;20943;-70
2021/08/05 10:19:40;;;;;;;5.87;5.33;;;29.70;84.10;;;;;;5067778;28;20485;-68
2021/08/05 10:22:09;;;;;;;5.57;5.07;;;28.90;83.80;;;;;;5061875;28;20446;-68
2021/08/05 10:24:38;;;;;;;9.00;6.40;;;29.00;85.10;;;;;;5072296;28;20445;-69
2021/08/05 10:27:09;;;;;;;6.73;5.70;;;28.70;86.40;;;;;;5055434;28;20454;-67
2021/08/05 10:29:37;;;;;;;6.30;5.77;;;28.30;87.80;;;;;;5058605;28;20445;-67
2021/08/05 10:32:06;;;;;;;5.83;5.23;;;28.40;88.20;;;;;;5067818;28;20785;-69
2021/08/05 10:34:34;;;;;;;6.10;5.50;;;28.80;86.90;;;;;;5064645;28;20439;-68
2021/08/05 10:37:02;;;;;;;6.70;5.60;;;29.00;86.40;;;;;;5062693;28;20445;-69
2021/08/05 10:39:31;;;;;;;5.63;5.13;;;28.70;86.70;;;;;;5055784;28;20512;-68
2021/08/05 10:41:59;;;;;;;7.37;5.40;;;28.70;86.60;;;;;;5063111;28;20803;-69
2021/08/05 10:44:29;;;;;;;6.13;5.63;;;28.60;86.10;;;;;;5062459;28;20481;-71
2021/08/05 10:46:57;;;;;;;5.57;5.07;;;28.50;86.60;;;;;;5063635;28;20445;-68
2021/08/05 10:49:25;;;;;;;6.83;6.23;;;27.90;86.80;;;;;;5062537;28;20453;-69
2021/08/05 10:51:53;;;;;;;6.50;6.00;;;27.80;89.20;;;;;;5045648;28;20454;-69
2021/08/05 10:54:53;;;;;;;8.87;6.00;;;27.80;89.20;;;;;;5065674;28;20437;-69
2021/08/05 10:57:23;;;;;;;7.30;5.07;;;27.80;89.40;;;;;;5053484;28;20472;-67
2021/08/05 11:00:09;;;;;;;4.83;4.50;;;27.70;88.40;;;;;;5042637;28;20487;-70
2021/08/05 11:02:48;;;;;;;6.43;5.87;;;26.90;88.80;;;;;;5043471;28;20454;-68
2021/08/05 11:05:41;;;;;;;5.90;5.37;;;26.70;90.50;;;;;;5059300;28;20529;-69
2021/08/05 11:08:28;;;;;;;9.20;7.70;;;26.30;91.60;;;;;;5036668;28;20534;-69
2021/08/05 11:11:30;;;;;;;7.97;5.37;;;26.20;92.30;;;;;;5049671;28;20442;-68
2021/08/05 11:14:30;;;;;;;14.73;6.07;;;26.10;91.40;;;;;;5053523;28;20960;-68
2021/08/05 11:17:06;;;;;;;6.80;6.20;;;25.90;92.70;;;;;;5045645;28;20465;-69
2021/08/05 11:19:36;;;;;;;5.73;5.33;;;25.80;93.00;;;;;;5045142;28;20485;-67
2021/08/05 11:22:47;;;;;;;6.77;6.20;;;26.10;93.20;;;;;;5046809;28;20455;-67
2021/08/05 11:25:15;;;;;;;5.10;4.70;;;26.40;92.80;;;;;;5051373;28;20762;-68
2021/08/05 11:27:46;;;;;;;5.23;4.80;;;26.60;92.20;;;;;;5053982;28;20836;-69
2021/08/05 11:30:48;;;;;;;5.27;4.87;;;26.40;92.00;;;;;;5050447;28;20453;-68
2021/08/05 11:34:00;;;;;;;9.43;5.60;;;26.40;92.00;;;;;;5042908;28;20450;-68
2021/08/05 11:36:35;;;;;;;8.53;5.60;;;26.40;92.40;;;;;;5048353;28;20507;-66
2021/08/05 11:39:07;;;;;;;6.70;6.10;;;26.60;91.90;;;;;;5061930;28;20476;-66
2021/08/05 11:41:49;;;;;;;6.90;6.23;;;26.00;92.30;;;;;;5053627;28;20503;-69
2021/08/05 11:44:28;;;;;;;7.07;6.13;;;25.90;92.90;;;;;;5043595;28;20455;-70
2021/08/05 11:47:29;;;;;;;6.53;5.83;;;25.90;93.30;;;;;;5048052;28;20457;-68
2021/08/05 11:49:59;;;;;;;6.60;6.00;;;25.90;93.50;;;;;;5047478;28;20456;-68
2021/08/05 11:52:36;;;;;;;6.37;5.77;;;25.90;93.50;;;;;;5053341;28;20858;-68
2021/08/05 11:55:06;;;;;;;6.63;5.90;;;25.70;93.70;;;;;;5040969;28;20463;-69
2021/08/05 11:57:39;;;;;;;8.47;5.80;;;25.60;94.00;;;;;;5054733;28;20473;-68
2021/08/05 12:00:12;;;;;;;6.90;5.70;;;25.60;93.90;;;;;;5048124;28;20868;-70
2021/08/05 12:02:40;;;;;;;6.00;5.50;;;25.60;94.00;;;;;;5052861;28;20464;-68
2021/08/05 12:05:08;;;;;;;6.07;5.47;;;25.30;94.10;;;;;;5043358;28;20569;-71
2021/08/05 12:07:38;;;;;;;6.57;5.90;;;25.40;94.40;;;;;;5049423;28;20468;-68
2021/08/05 12:10:13;;;;;;;6.53;5.50;;;25.60;93.90;;;;;;5047028;28;20935;-68
2021/08/05 12:12:44;;;;;;;6.27;5.67;;;25.70;93.50;;;;;;5058930;28;20456;-68
2021/08/05 12:15:13;;;;;;;4.93;4.53;;;25.70;92.90;;;;;;5042890;28;20498;-69
2021/08/05 12:17:48;;;;;;;5.97;4.60;;;25.90;93.20;;;;;;5047922;28;20465;-70
2021/08/05 12:20:22;;;;;;;5.50;5.00;;;25.70;92.80;;;;;;5042107;28;20482;-68
2021/08/05 12:22:53;;;;;;;6.03;5.43;;;25.90;92.80;;;;;;5046690;28;20446;-69
2021/08/05 12:25:37;;;;;;;5.10;4.70;;;25.80;93.00;;;;;;5048302;28;20912;-69
2021/08/05 12:28:08;;;;;;;6.17;5.57;;;25.90;92.40;;;;;;5061145;28;20468;-69
2021/08/05 12:30:44;;;;;;;6.30;5.70;;;25.80;93.00;;;;;;5043098;28;20468;-68
2021/08/05 12:33:15;;;;;;;6.30;5.50;;;25.50;93.40;;;;;;5040886;28;20443;-68
2021/08/05 12:35:57;;;;;;;5.73;4.43;;;25.40;93.70;;;;;;5054260;28;20447;-71
2021/08/05 12:38:26;;;;;;;4.57;4.27;;;25.50;93.70;;;;;;5036952;28;20484;-69
2021/08/05 12:40:54;;;;;;;5.83;5.33;;;25.50;93.30;;;;;;5049160;28;20493;-68
2021/08/05 12:43:25;;;;;;;7.20;5.73;;;25.40;92.80;;;;;;5057423;28;20463;-67
2021/08/05 12:45:52;;;;;;;5.53;5.13;;;25.50;93.50;;;;;;5044626;28;20448;-68
2021/08/05 12:48:22;;;;;;;5.73;5.23;;;25.60;93.60;;;;;;5047948;28;20473;-68
2021/08/05 12:50:50;;;;;;;6.63;5.50;;;25.80;93.40;;;;;;5045604;28;20446;-67
2021/08/05 12:53:28;;;;;;;5.20;4.70;;;25.90;93.10;;;;;;5049951;28;20463;-67
2021/08/05 12:55:56;;;;;;;6.13;5.10;;;25.80;92.90;;;;;;5050437;28;20881;-70